createdAt,value
2022-10-06T00:03:55.239Z,8.48
2022-10-06T00:08:56.823Z,10.00
2022-10-06T00:13:58.383Z,7.57
2022-10-06T00:18:59.983Z,9.68
2022-10-06T00:24:02.201Z,10.35
2022-10-06T00:29:03.805Z,12.98
2022-10-06T00:34:05.399Z,7.57
2022-10-06T00:39:07.162Z,6.55
2022-10-06T00:44:08.727Z,6.72
2022-10-06T00:49:23.156Z,5.40
2022-10-06T00:54:25.394Z,5.45
2022-10-06T00:59:26.975Z,4.20
2022-10-06T01:04:33.108Z,5.15
2022-10-06T01:09:35.107Z,3.85
2022-10-06T01:14:39.224Z,4.43
2022-10-06T01:20:04.153Z,3.95
2022-10-06T01:25:08.094Z,3.03
2022-10-06T01:30:14.450Z,2.30
2022-10-06T01:35:16.083Z,2.22
2022-10-06T01:40:17.712Z,3.53
2022-10-06T01:45:19.291Z,4.25
2022-10-06T01:50:20.938Z,3.80
2022-10-06T01:55:22.505Z,5.18
2022-10-06T02:00:24.487Z,6.60
2022-10-06T02:05:26.114Z,3.40
2022-10-06T02:10:27.723Z,4.55
2022-10-06T02:15:33.090Z,3.80
2022-10-06T02:20:34.672Z,3.40
2022-10-06T02:25:36.263Z,6.05
2022-10-06T02:30:37.857Z,4.72
2022-10-06T02:35:39.592Z,4.25
2022-10-06T02:40:41.618Z,3.47
2022-10-06T02:45:43.328Z,3.67
2022-10-06T02:50:45.495Z,3.25
2022-10-06T02:55:47.119Z,2.28
2022-10-06T03:00:48.700Z,6.93
2022-10-06T03:05:50.354Z,8.13
2022-10-06T03:10:51.932Z,4.78
2022-10-06T03:15:53.581Z,3.92
2022-10-06T03:21:00.535Z,5.05
2022-10-06T03:26:02.147Z,7.53
2022-10-06T03:31:05.679Z,4.43
2022-10-06T03:36:12.559Z,5.55
2022-10-06T03:41:17.185Z,5.10
2022-10-06T03:46:21.465Z,6.03
2022-10-06T03:51:24.643Z,7.07
2022-10-06T03:56:28.149Z,3.83
2022-10-06T04:01:35.835Z,8.30
2022-10-06T04:06:40.586Z,4.07
2022-10-06T04:11:43.074Z,5.63
2022-10-06T04:16:50.077Z,7.63
2022-10-06T04:21:51.832Z,6.05
2022-10-06T04:26:53.463Z,7.03
2022-10-06T04:31:55.054Z,7.82
2022-10-06T04:36:56.673Z,5.80
2022-10-06T04:41:58.262Z,7.35
2022-10-06T04:47:01.331Z,7.18
2022-10-06T04:52:03.049Z,7.30
2022-10-06T04:57:06.012Z,8.27
2022-10-06T05:02:07.826Z,9.68
2022-10-06T05:07:09.450Z,10.20
2022-10-06T05:12:11.550Z,7.72
2022-10-06T05:17:13.187Z,9.60
2022-10-06T05:22:14.769Z,9.13
2022-10-06T05:27:16.350Z,6.63
2022-10-06T05:32:17.982Z,8.05
2022-10-06T05:37:19.609Z,7.85
2022-10-06T05:42:22.089Z,8.10
2022-10-06T05:47:25.701Z,7.65
2022-10-06T05:52:27.298Z,11.02
2022-10-06T05:57:28.921Z,8.63
2022-10-06T06:02:30.622Z,10.98
2022-10-06T06:07:32.264Z,9.38
2022-10-06T06:12:33.848Z,8.85
2022-10-06T06:17:35.475Z,10.93
2022-10-06T06:22:37.140Z,10.15
2022-10-06T06:27:42.189Z,8.82
2022-10-06T06:32:43.784Z,11.73
2022-10-06T06:37:46.509Z,8.18
2022-10-06T06:42:51.611Z,7.03
2022-10-06T06:47:55.337Z,11.63
2022-10-06T06:52:56.947Z,10.35
2022-10-06T06:57:58.564Z,7.90
2022-10-06T07:03:00.691Z,10.93
2022-10-06T07:08:02.288Z,10.98
2022-10-06T07:13:04.821Z,11.10
2022-10-06T07:18:25.061Z,12.52
2022-10-06T07:23:45.500Z,12.27
2022-10-06T07:28:48.763Z,12.23
2022-10-06T07:33:51.273Z,10.75
2022-10-06T07:38:52.850Z,13.98
2022-10-06T07:43:54.658Z,11.82
2022-10-06T07:48:56.276Z,16.58
2022-10-06T07:53:57.852Z,15.32
2022-10-06T07:58:59.488Z,13.75
2022-10-06T08:04:02.626Z,11.48
2022-10-06T08:09:05.719Z,14.23
2022-10-06T08:14:07.433Z,13.30
2022-10-06T08:19:09.194Z,14.52
2022-10-06T08:24:10.990Z,18.13
2022-10-06T08:29:12.585Z,17.10
2022-10-06T08:34:14.179Z,17.58
2022-10-06T08:39:15.793Z,17.20
2022-10-06T08:44:56.731Z,12.68
2022-10-06T08:49:58.989Z,9.65
2022-10-06T08:55:24.871Z,14.30
2022-10-06T09:00:29.869Z,12.98
2022-10-06T09:05:34.782Z,13.30
2022-10-06T09:10:56.483Z,15.93
2022-10-06T09:16:07.589Z,16.75
2022-10-06T09:21:33.213Z,15.45
2022-10-06T09:26:34.809Z,13.80
2022-10-06T09:31:47.551Z,14.48
2022-10-06T09:37:01.959Z,11.10
2022-10-06T09:42:09.905Z,12.70
2022-10-06T09:47:32.486Z,18.77
2022-10-06T09:52:34.083Z,16.88
2022-10-06T09:57:37.331Z,14.32
2022-10-06T10:02:41.009Z,14.18
2022-10-06T10:07:44.174Z,11.73
2022-10-06T10:12:57.517Z,13.35
2022-10-06T10:18:01.225Z,16.58
2022-10-06T10:23:17.017Z,13.75
2022-10-06T10:28:30.912Z,14.80
2022-10-06T10:33:54.066Z,13.25
2022-10-06T10:39:14.169Z,14.20
2022-10-06T10:44:29.280Z,10.63
2022-10-06T10:49:33.402Z,12.40
2022-10-06T10:54:44.960Z,12.65
2022-10-06T10:59:55.412Z,10.13
2022-10-06T11:05:28.999Z,11.85
2022-10-06T11:10:36.391Z,16.40
2022-10-06T11:15:37.920Z,12.43
2022-10-06T11:20:50.360Z,9.85
2022-10-06T11:26:04.906Z,10.02
2022-10-06T11:31:11.585Z,10.40
2022-10-06T11:36:19.562Z,9.32
2022-10-06T11:41:33.459Z,11.73
2022-10-06T11:46:45.520Z,9.00
2022-10-06T11:51:47.148Z,9.25
2022-10-06T11:56:48.730Z,12.10
2022-10-06T12:01:51.871Z,8.70
2022-10-06T12:06:57.082Z,10.18
2022-10-06T12:11:58.707Z,8.40
2022-10-06T12:17:18.337Z,7.70
2022-10-06T12:22:38.764Z,8.90
2022-10-06T12:27:46.519Z,8.18
2022-10-06T12:32:57.469Z,7.40
2022-10-06T12:38:04.913Z,9.32
2022-10-06T12:43:14.344Z,9.70
2022-10-06T12:48:28.415Z,6.03
2022-10-06T12:53:38.515Z,8.27
2022-10-06T12:58:40.724Z,7.50
2022-10-06T13:03:48.290Z,6.57
2022-10-06T13:09:13.375Z,6.55
2022-10-06T13:14:17.078Z,8.38
2022-10-06T13:19:26.958Z,6.10
2022-10-06T13:24:28.805Z,8.05
2022-10-06T13:29:31.853Z,7.05
2022-10-06T13:34:43.272Z,6.43
2022-10-06T13:39:45.110Z,6.18
2022-10-06T13:45:00.802Z,4.68
2022-10-06T13:50:06.481Z,5.32
2022-10-06T13:55:29.398Z,7.55
2022-10-06T14:00:55.935Z,6.22
2022-10-06T14:06:08.542Z,8.65
2022-10-06T14:11:10.867Z,7.88
2022-10-06T14:16:21.142Z,7.70
2022-10-06T14:21:45.746Z,7.60
2022-10-06T14:26:55.721Z,8.93
2022-10-06T14:32:08.469Z,7.22
2022-10-06T14:37:15.171Z,8.15
2022-10-06T14:42:17.451Z,8.88
2022-10-06T14:47:19.836Z,5.90
2022-10-06T14:52:22.289Z,7.47
2022-10-06T14:57:23.888Z,6.15
2022-10-06T15:02:25.612Z,7.25
2022-10-06T15:07:46.035Z,7.70
2022-10-06T15:12:47.704Z,6.70
2022-10-06T15:17:49.435Z,9.85
2022-10-06T15:22:51.081Z,10.75
2022-10-06T15:28:11.685Z,12.57
2022-10-06T15:33:13.425Z,8.27
2022-10-06T15:38:15.048Z,4.18
2022-10-06T15:43:36.651Z,7.55
2022-10-06T15:48:41.232Z,5.53
2022-10-06T15:53:46.505Z,8.27
2022-10-06T15:58:48.854Z,11.30
2022-10-06T16:03:50.882Z,10.18
2022-10-06T16:08:52.676Z,5.35
2022-10-06T16:13:54.269Z,9.98
2022-10-06T16:18:56.258Z,7.00
2022-10-06T16:23:59.160Z,8.50
2022-10-06T16:29:00.742Z,10.13
2022-10-06T16:34:17.805Z,6.72
2022-10-06T16:39:22.009Z,5.55
2022-10-06T16:44:23.656Z,6.10
2022-10-06T16:49:27.282Z,6.85
2022-10-06T16:54:28.938Z,8.15
2022-10-06T16:59:31.002Z,6.45
2022-10-06T17:04:32.704Z,7.10
2022-10-06T17:09:34.928Z,11.38
2022-10-06T17:14:36.517Z,8.50
2022-10-06T17:19:38.086Z,11.18
2022-10-06T17:24:39.684Z,9.25
2022-10-06T17:29:41.294Z,8.57
2022-10-06T17:34:42.913Z,8.30
2022-10-06T17:39:46.964Z,9.55
2022-10-06T17:44:48.968Z,8.98
2022-10-06T17:49:50.809Z,10.52
2022-10-06T17:54:54.402Z,6.07
2022-10-06T17:59:59.086Z,8.90
2022-10-06T18:05:00.684Z,8.00
2022-10-06T18:10:21.105Z,12.80
2022-10-06T18:15:22.703Z,11.27
2022-10-06T18:20:29.958Z,9.45
2022-10-06T18:25:31.619Z,13.02
2022-10-06T18:30:33.825Z,11.45
2022-10-06T18:41:02.577Z,9.93
2022-10-06T18:46:24.676Z,7.07
2022-10-06T18:51:27.002Z,14.18
2022-10-06T18:56:31.391Z,14.00
2022-10-06T19:01:33.112Z,17.15
2022-10-06T19:06:35.756Z,8.77
2022-10-06T19:12:06.993Z,11.35
2022-10-06T19:17:14.287Z,12.70
2022-10-06T19:22:16.263Z,10.88
2022-10-06T19:27:26.194Z,10.50
2022-10-06T19:32:32.786Z,11.03
2022-10-06T19:37:34.716Z,7.80
2022-10-06T19:42:48.246Z,12.60
2022-10-06T19:47:51.705Z,10.50
2022-10-06T19:52:53.471Z,13.45
2022-10-06T19:57:55.159Z,12.68
2022-10-06T20:02:57.044Z,9.00
2022-10-06T20:07:59.123Z,13.05
2022-10-06T20:13:00.696Z,10.98
2022-10-06T20:18:04.357Z,9.07
2022-10-06T20:23:06.767Z,12.75
2022-10-06T20:28:09.464Z,13.98
2022-10-06T20:33:11.340Z,11.50
2022-10-06T20:38:14.715Z,12.98
2022-10-06T20:43:16.897Z,12.15
2022-10-06T20:48:18.465Z,10.82
2022-10-06T20:53:20.155Z,14.68
2022-10-06T20:58:21.723Z,10.07
2022-10-06T21:03:23.423Z,10.60
2022-10-06T21:08:25.163Z,8.65
2022-10-06T21:13:28.502Z,9.45
2022-10-06T21:18:31.497Z,14.23
2022-10-06T21:23:38.196Z,14.65
2022-10-06T21:28:40.049Z,10.98
2022-10-06T21:33:43.212Z,11.20
2022-10-06T21:38:47.953Z,10.82
2022-10-06T21:44:16.939Z,14.32
2022-10-06T21:49:20.998Z,11.13
2022-10-06T21:54:23.934Z,11.93
2022-10-06T21:59:25.702Z,8.90
2022-10-06T22:04:27.429Z,11.65
2022-10-06T22:09:29.194Z,10.55
2022-10-06T22:14:30.892Z,17.00
2022-10-06T22:19:32.601Z,10.55
2022-10-06T22:24:34.308Z,13.52
2022-10-06T22:29:36.032Z,15.68
2022-10-06T22:34:38.242Z,11.95
2022-10-06T22:39:39.950Z,12.23
2022-10-06T22:44:41.648Z,8.55
2022-10-06T22:49:43.377Z,12.32
2022-10-06T22:54:45.188Z,8.40
2022-10-06T22:59:46.889Z,14.85
2022-10-06T23:04:48.617Z,10.82
2022-10-06T23:09:50.339Z,12.38
2022-10-06T23:14:52.037Z,12.88
2022-10-06T23:19:53.745Z,12.98
2022-10-06T23:24:55.577Z,7.28
2022-10-06T23:29:57.307Z,12.18
2022-10-06T23:34:59.029Z,10.85
2022-10-06T23:40:00.834Z,11.80
2022-10-06T23:45:02.546Z,9.20
2022-10-06T23:50:04.614Z,12.02
2022-10-06T23:55:06.594Z,9.50
